createdAt,value
2018-12-26T00:01:55.543Z,19.90
2018-12-26T00:04:36.179Z,19.90
2018-12-26T00:07:17.535Z,19.80
2018-12-26T00:09:58.326Z,19.60
2018-12-26T00:12:38.654Z,19.50
2018-12-26T00:15:19.607Z,19.50
2018-12-26T00:18:00.247Z,19.40
2018-12-26T00:20:41.716Z,19.30
2018-12-26T00:23:22.478Z,19.20
2018-12-26T00:26:03.258Z,19.20
2018-12-26T00:28:43.823Z,19.10
2018-12-26T00:31:24.954Z,19.00
2018-12-26T00:34:05.503Z,18.80
2018-12-26T00:36:46.134Z,18.70
2018-12-26T00:39:26.968Z,18.60
2018-12-26T00:42:07.516Z,18.50
2018-12-26T00:44:48.627Z,18.50
2018-12-26T00:47:29.398Z,18.40
2018-12-26T00:50:09.983Z,18.30
2018-12-26T00:52:51.021Z,18.30
2018-12-26T00:55:31.579Z,18.20
2018-12-26T00:58:13.008Z,18.20
2018-12-26T01:00:53.881Z,18.10
2018-12-26T01:03:35.286Z,18.10
2018-12-26T01:06:16.163Z,18.10
2018-12-26T01:08:55.786Z,18.00
2018-12-26T01:11:43.926Z,17.90
2018-12-26T01:14:25.162Z,17.80
2018-12-26T01:17:06.326Z,17.70
2018-12-26T01:19:47.470Z,17.60
2018-12-26T01:22:28.254Z,17.60
2018-12-26T01:25:09.298Z,17.60
2018-12-26T01:27:50.411Z,17.60
2018-12-26T01:30:31.082Z,17.60
2018-12-26T01:33:12.135Z,17.60
2018-12-26T01:35:53.407Z,17.50
2018-12-26T01:38:34.631Z,17.50
2018-12-26T01:41:16.090Z,17.50
2018-12-26T01:43:57.452Z,17.50
2018-12-26T01:46:38.927Z,17.40
2018-12-26T01:49:20.046Z,17.40
2018-12-26T01:52:01.619Z,17.40
2018-12-26T01:54:43.111Z,17.30
2018-12-26T01:57:24.076Z,17.30
2018-12-26T02:00:05.775Z,17.30
2018-12-26T02:02:46.367Z,17.30
2018-12-26T02:05:27.536Z,17.20
2018-12-26T02:08:08.970Z,17.20
2018-12-26T02:10:49.607Z,17.20
2018-12-26T02:13:31.021Z,17.10
2018-12-26T02:16:12.278Z,17.10
2018-12-26T02:18:53.275Z,17.10
2018-12-26T02:21:34.668Z,17.10
2018-12-26T02:24:15.474Z,17.00
2018-12-26T02:26:56.139Z,17.00
2018-12-26T02:29:36.741Z,17.00
2018-12-26T02:34:58.436Z,17.00
2018-12-26T02:37:39.121Z,17.00
2018-12-26T02:40:20.570Z,16.90
2018-12-26T02:43:01.843Z,16.90
2018-12-26T02:45:42.453Z,16.90
2018-12-26T02:48:23.082Z,16.90
2018-12-26T02:51:03.904Z,16.90
2018-12-26T02:56:24.166Z,16.90
2018-12-26T02:59:04.798Z,16.80
2018-12-26T03:01:44.580Z,16.80
2018-12-26T03:04:32.871Z,16.80
2018-12-26T03:07:13.668Z,16.80
2018-12-26T03:09:54.355Z,16.80
2018-12-26T03:12:35.431Z,16.80
2018-12-26T03:15:16.563Z,16.80
2018-12-26T03:17:57.350Z,16.80
2018-12-26T03:20:38.374Z,16.70
2018-12-26T03:23:19.750Z,16.70
2018-12-26T03:26:00.646Z,16.70
2018-12-26T03:28:41.354Z,16.80
2018-12-26T03:31:22.786Z,16.70
2018-12-26T03:33:52.066Z,16.70
2018-12-26T03:36:40.359Z,16.70
2018-12-26T03:39:21.324Z,16.70
2018-12-26T03:42:02.087Z,16.70
2018-12-26T03:44:42.766Z,16.70
2018-12-26T03:47:23.558Z,16.70
2018-12-26T03:50:04.254Z,16.60
2018-12-26T03:52:45.936Z,16.60
2018-12-26T03:55:26.441Z,16.60
2018-12-26T03:58:07.412Z,16.60
2018-12-26T04:00:48.254Z,16.60
2018-12-26T04:03:29.199Z,16.60
2018-12-26T04:06:10.467Z,16.60
2018-12-26T04:08:51.586Z,16.60
2018-12-26T04:11:32.488Z,16.60
2018-12-26T04:14:13.284Z,16.60
2018-12-26T04:16:53.937Z,16.50
2018-12-26T04:19:35.464Z,16.50
2018-12-26T04:22:16.294Z,16.50
2018-12-26T04:24:57.831Z,16.50
2018-12-26T04:27:38.932Z,16.50
2018-12-26T04:30:20.091Z,16.50
2018-12-26T04:33:00.554Z,16.50
2018-12-26T04:35:41.304Z,16.50
2018-12-26T04:38:22.191Z,16.50
2018-12-26T04:41:03.016Z,16.40
2018-12-26T04:43:32.563Z,16.40
2018-12-26T04:46:20.895Z,16.40
2018-12-26T04:49:01.749Z,16.40
2018-12-26T04:51:43.084Z,16.40
2018-12-26T04:54:24.629Z,16.40
2018-12-26T04:57:06.271Z,16.30
2018-12-26T04:59:47.594Z,16.30
2018-12-26T05:02:29.134Z,16.30
2018-12-26T05:05:09.766Z,16.30
2018-12-26T05:07:50.300Z,16.30
2018-12-26T05:10:31.039Z,16.30
2018-12-26T05:13:11.680Z,16.30
2018-12-26T05:15:52.241Z,16.30
2018-12-26T05:18:33.159Z,16.30
2018-12-26T05:21:14.636Z,16.30
2018-12-26T05:23:55.998Z,16.30
2018-12-26T05:26:36.903Z,16.20
2018-12-26T05:29:16.343Z,16.30
2018-12-26T05:31:57.124Z,16.20
2018-12-26T05:34:38.208Z,16.20
2018-12-26T05:37:19.559Z,16.20
2018-12-26T05:40:00.649Z,16.20
2018-12-26T05:42:42.039Z,16.20
2018-12-26T05:45:22.955Z,16.20
2018-12-26T05:48:03.579Z,16.20
2018-12-26T05:50:44.223Z,16.10
2018-12-26T05:53:26.018Z,16.10
2018-12-26T05:56:06.994Z,16.00
2018-12-26T05:58:48.141Z,16.10
2018-12-26T06:01:28.944Z,16.10
2018-12-26T06:04:10.390Z,16.10
2018-12-26T06:06:51.848Z,16.00
2018-12-26T06:09:32.578Z,16.10
2018-12-26T06:12:14.098Z,16.00
2018-12-26T06:14:55.454Z,16.00
2018-12-26T06:17:36.516Z,16.00
2018-12-26T06:20:17.879Z,16.00
2018-12-26T06:22:59.127Z,16.00
2018-12-26T06:25:40.483Z,16.00
2018-12-26T06:28:21.952Z,16.00
2018-12-26T06:31:03.303Z,16.00
2018-12-26T06:33:43.991Z,16.00
2018-12-26T06:36:25.395Z,16.00
2018-12-26T06:39:06.726Z,16.00
2018-12-26T06:41:47.914Z,16.00
2018-12-26T06:44:28.768Z,16.00
2018-12-26T06:47:10.354Z,16.00
2018-12-26T06:49:51.612Z,16.00
2018-12-26T06:52:32.294Z,15.90
2018-12-26T06:55:11.980Z,15.90
2018-12-26T06:57:59.886Z,15.90
2018-12-26T07:00:35.339Z,15.90
2018-12-26T07:03:15.948Z,16.00
2018-12-26T07:05:57.181Z,15.90
2018-12-26T07:08:37.844Z,15.90
2018-12-26T07:11:19.286Z,15.90
2018-12-26T07:13:48.662Z,15.90
2018-12-26T07:16:36.842Z,15.90
2018-12-26T07:19:17.913Z,15.90
2018-12-26T07:21:58.823Z,15.90
2018-12-26T07:27:19.902Z,15.90
2018-12-26T07:30:01.502Z,15.90
2018-12-26T07:32:42.387Z,15.90
2018-12-26T07:35:23.770Z,15.90
2018-12-26T07:38:04.638Z,15.90
2018-12-26T07:40:46.079Z,15.90
2018-12-26T07:43:27.558Z,15.90
2018-12-26T07:46:09.207Z,15.90
2018-12-26T07:48:50.349Z,15.90
2018-12-26T07:51:31.757Z,15.90
2018-12-26T07:54:12.546Z,15.80
2018-12-26T07:56:53.210Z,15.80
2018-12-26T07:59:37.691Z,15.80
2018-12-26T08:02:16.845Z,15.80
2018-12-26T08:04:57.411Z,15.80
2018-12-26T08:07:38.477Z,15.80
2018-12-26T08:10:19.406Z,15.80
2018-12-26T08:13:00.997Z,15.80
2018-12-26T08:15:42.361Z,15.80
2018-12-26T08:18:23.143Z,15.80
2018-12-26T08:21:02.706Z,15.80
2018-12-26T08:23:51.076Z,15.80
2018-12-26T08:26:31.582Z,15.80
2018-12-26T08:29:12.905Z,15.80
2018-12-26T08:31:54.080Z,15.70
2018-12-26T08:34:35.234Z,15.80
2018-12-26T08:37:16.487Z,15.80
2018-12-26T08:39:57.876Z,15.80
2018-12-26T08:42:39.115Z,15.70
2018-12-26T08:45:19.922Z,15.70
2018-12-26T08:48:01.444Z,15.70
2018-12-26T08:50:42.860Z,15.70
2018-12-26T08:53:23.743Z,15.70
2018-12-26T08:56:05.438Z,15.70
2018-12-26T08:58:46.855Z,15.70
2018-12-26T09:01:28.031Z,15.30
2018-12-26T09:04:10.875Z,15.70
2018-12-26T09:06:51.969Z,15.70
2018-12-26T09:09:32.706Z,15.70
2018-12-26T09:12:13.699Z,15.70
2018-12-26T09:14:55.079Z,15.70
2018-12-26T09:17:44.743Z,15.70
2018-12-26T09:20:25.682Z,15.70
2018-12-26T09:23:06.473Z,15.70
2018-12-26T09:25:47.034Z,15.70
2018-12-26T09:28:28.019Z,15.70
2018-12-26T09:31:09.050Z,15.70
2018-12-26T09:33:49.694Z,15.60
2018-12-26T09:36:31.028Z,15.70
2018-12-26T09:39:12.095Z,15.60
2018-12-26T09:41:53.366Z,15.60
2018-12-26T09:44:34.644Z,15.60
2018-12-26T09:47:15.922Z,15.60
2018-12-26T09:49:56.458Z,15.70
2018-12-26T09:52:37.660Z,15.60
2018-12-26T09:55:18.387Z,15.60
2018-12-26T09:57:47.659Z,15.60
2018-12-26T10:00:35.803Z,15.60
2018-12-26T10:03:16.606Z,15.60
2018-12-26T10:05:57.226Z,15.60
2018-12-26T10:08:37.924Z,15.60
2018-12-26T10:11:19.551Z,15.50
2018-12-26T10:14:00.984Z,15.60
2018-12-26T10:16:41.945Z,15.60
2018-12-26T10:19:23.382Z,15.60
2018-12-26T10:22:04.156Z,15.60
2018-12-26T10:24:45.034Z,15.60
2018-12-26T10:27:25.906Z,15.60
2018-12-26T10:30:07.066Z,15.50
2018-12-26T10:32:48.247Z,15.50
2018-12-26T10:35:29.610Z,15.60
2018-12-26T10:38:10.877Z,15.60
2018-12-26T10:40:51.856Z,15.50
2018-12-26T10:43:32.859Z,15.50
2018-12-26T10:46:14.187Z,15.50
2018-12-26T10:48:55.302Z,15.40
2018-12-26T10:51:36.167Z,15.40
2018-12-26T10:54:17.117Z,15.40
2018-12-26T10:56:58.949Z,15.40
2018-12-26T10:59:39.933Z,15.40
2018-12-26T11:02:21.331Z,15.40
2018-12-26T11:05:03.058Z,15.40
2018-12-26T11:07:43.650Z,15.40
2018-12-26T11:10:24.666Z,15.40
2018-12-26T11:13:07.544Z,15.50
2018-12-26T11:15:49.731Z,15.70
2018-12-26T11:18:30.987Z,15.90
2018-12-26T11:21:11.817Z,16.10
2018-12-26T11:23:53.063Z,16.30
2018-12-26T11:26:33.934Z,16.60
2018-12-26T11:29:18.561Z,16.90
2018-12-26T11:31:57.214Z,17.20
2018-12-26T11:34:38.274Z,17.70
2018-12-26T11:37:18.869Z,18.20
2018-12-26T11:39:59.667Z,18.50
2018-12-26T11:42:40.510Z,18.60
2018-12-26T11:45:21.018Z,18.60
2018-12-26T11:48:02.290Z,18.60
2018-12-26T11:50:42.891Z,18.60
2018-12-26T11:53:23.575Z,18.60
2018-12-26T11:56:05.070Z,18.80
2018-12-26T11:58:45.975Z,19.00
2018-12-26T12:01:27.252Z,19.20
2018-12-26T12:04:07.927Z,19.40
2018-12-26T12:06:48.861Z,19.40
2018-12-26T12:09:29.787Z,19.40
2018-12-26T12:12:10.728Z,19.50
2018-12-26T12:14:51.963Z,19.30
2018-12-26T12:17:33.101Z,19.70
2018-12-26T12:20:14.510Z,19.80
2018-12-26T12:22:55.244Z,19.90
2018-12-26T12:25:36.076Z,20.10
2018-12-26T12:28:17.359Z,20.10
2018-12-26T12:30:58.940Z,20.10
2018-12-26T12:33:40.145Z,20.10
2018-12-26T12:36:21.478Z,20.00
2018-12-26T12:39:02.170Z,20.10
2018-12-26T12:41:41.902Z,20.20
2018-12-26T12:44:23.310Z,20.20
2018-12-26T12:47:04.463Z,20.30
2018-12-26T12:49:45.838Z,20.90
2018-12-26T12:52:27.465Z,21.30
2018-12-26T12:55:09.029Z,21.30
2018-12-26T12:57:49.540Z,21.30
2018-12-26T13:00:30.474Z,21.00
2018-12-26T13:03:11.874Z,20.80
2018-12-26T13:05:53.295Z,20.80
2018-12-26T13:08:36.159Z,20.70
2018-12-26T13:11:17.539Z,20.70
2018-12-26T13:13:58.757Z,20.70
2018-12-26T13:16:39.643Z,20.80
2018-12-26T13:19:20.343Z,20.80
2018-12-26T13:22:01.114Z,20.70
2018-12-26T13:24:42.579Z,20.70
2018-12-26T13:27:23.446Z,20.80
2018-12-26T13:30:04.847Z,20.80
2018-12-26T13:32:45.528Z,20.80
2018-12-26T13:35:26.606Z,20.90
2018-12-26T13:38:08.115Z,20.90
2018-12-26T13:40:49.786Z,20.90
2018-12-26T13:43:30.547Z,20.90
2018-12-26T13:46:12.434Z,21.00
2018-12-26T13:48:53.742Z,21.10
2018-12-26T13:51:34.387Z,21.10
2018-12-26T13:54:15.922Z,21.10
2018-12-26T13:56:56.543Z,21.10
2018-12-26T13:59:37.868Z,21.10
2018-12-26T14:02:19.251Z,21.00
2018-12-26T14:04:59.991Z,21.10
2018-12-26T14:07:40.551Z,21.10
2018-12-26T14:10:21.510Z,21.10
2018-12-26T14:12:50.755Z,21.10
2018-12-26T14:15:39.004Z,21.10
2018-12-26T14:18:20.366Z,21.10
2018-12-26T14:21:01.016Z,21.20
2018-12-26T14:23:42.078Z,21.40
2018-12-26T14:26:23.363Z,21.50
2018-12-26T14:29:06.429Z,21.60
2018-12-26T14:31:47.512Z,21.50
2018-12-26T14:34:29.074Z,21.30
2018-12-26T14:37:10.569Z,21.20
2018-12-26T14:45:58.195Z,21.10
2018-12-26T14:48:39.779Z,20.90
2018-12-26T14:51:26.334Z,20.80
2018-12-26T14:56:43.812Z,20.80
2018-12-26T14:59:24.791Z,20.70
2018-12-26T15:02:06.214Z,20.70
2018-12-26T15:04:47.090Z,20.60
2018-12-26T15:10:32.226Z,20.40
2018-12-26T15:13:13.368Z,20.30
2018-12-26T15:15:54.798Z,20.20
2018-12-26T15:18:35.668Z,20.10
2018-12-26T15:21:16.739Z,19.90
2018-12-26T15:23:57.398Z,19.80
2018-12-26T15:26:38.018Z,19.70
2018-12-26T15:29:18.635Z,19.60
2018-12-26T15:31:59.999Z,19.50
2018-12-26T15:34:40.544Z,19.40
2018-12-26T15:37:21.935Z,19.40
2018-12-26T15:40:03.574Z,19.30
2018-12-26T15:42:44.547Z,19.20
2018-12-26T15:45:25.250Z,19.20
2018-12-26T15:48:06.736Z,19.10
2018-12-26T15:50:48.157Z,19.00
2018-12-26T15:53:29.202Z,18.90
2018-12-26T15:56:10.060Z,18.80
2018-12-26T15:58:53.115Z,18.80
2018-12-26T16:01:33.992Z,18.70
2018-12-26T16:04:15.494Z,18.60
2018-12-26T16:06:56.050Z,18.60
2018-12-26T16:09:36.622Z,18.50
2018-12-26T16:12:17.594Z,18.40
2018-12-26T16:14:58.352Z,18.40
2018-12-26T16:17:39.161Z,18.30
2018-12-26T16:20:20.739Z,18.30
2018-12-26T16:23:01.392Z,18.20
2018-12-26T16:25:41.910Z,18.20
2018-12-26T16:28:22.614Z,18.10
2018-12-26T16:31:03.428Z,18.10
2018-12-26T16:33:44.114Z,18.00
2018-12-26T16:36:24.987Z,18.00
2018-12-26T16:39:06.271Z,17.90
2018-12-26T16:41:48.254Z,17.90
2018-12-26T16:44:29.826Z,17.80
2018-12-26T16:47:11.256Z,17.80
2018-12-26T16:49:52.583Z,17.70
2018-12-26T16:52:33.742Z,17.70
2018-12-26T16:55:14.546Z,17.60
2018-12-26T16:57:55.248Z,17.60
2018-12-26T17:00:36.706Z,17.60
2018-12-26T17:03:18.331Z,17.50
2018-12-26T17:05:59.907Z,17.50
2018-12-26T17:08:40.785Z,17.40
2018-12-26T17:11:21.398Z,17.40
2018-12-26T17:14:02.050Z,17.40
2018-12-26T17:16:43.223Z,17.30
2018-12-26T17:19:24.703Z,17.30
2018-12-26T17:22:05.926Z,17.30
2018-12-26T17:24:46.739Z,17.30
2018-12-26T17:27:27.728Z,17.30
2018-12-26T17:30:08.886Z,17.20
2018-12-26T17:32:50.060Z,17.20
2018-12-26T17:35:30.965Z,17.20
2018-12-26T17:38:11.555Z,17.10
2018-12-26T17:40:52.354Z,17.10
2018-12-26T17:43:33.125Z,17.10
2018-12-26T17:46:14.550Z,17.10
2018-12-26T17:48:55.398Z,17.00
2018-12-26T17:51:36.840Z,17.00
2018-12-26T17:54:18.259Z,17.00
2018-12-26T17:56:58.957Z,17.00
2018-12-26T17:59:39.482Z,17.00
2018-12-26T18:02:20.051Z,16.90
2018-12-26T18:05:01.050Z,16.90
2018-12-26T18:07:42.383Z,16.90
2018-12-26T18:10:23.509Z,16.90
2018-12-26T18:13:04.693Z,16.90
2018-12-26T18:15:46.326Z,16.90
2018-12-26T18:18:27.547Z,16.80
2018-12-26T18:21:08.292Z,16.80
2018-12-26T18:23:49.695Z,16.80
2018-12-26T18:26:32.887Z,16.80
2018-12-26T18:29:14.475Z,16.80
2018-12-26T18:31:55.299Z,16.70
2018-12-26T18:40:42.591Z,16.90
2018-12-26T18:43:23.360Z,16.70
2018-12-26T18:46:04.671Z,16.70
2018-12-26T18:48:45.618Z,16.70
2018-12-26T18:51:26.251Z,16.70
2018-12-26T18:54:07.318Z,16.60
2018-12-26T18:56:48.003Z,16.60
2018-12-26T18:59:28.495Z,16.60
2018-12-26T19:02:09.487Z,16.60
2018-12-26T19:04:50.036Z,16.60
2018-12-26T19:07:31.470Z,16.60
2018-12-26T19:10:12.174Z,16.50
2018-12-26T19:12:52.891Z,16.50
2018-12-26T19:15:33.968Z,16.50
2018-12-26T19:18:15.087Z,16.40
2018-12-26T19:20:55.682Z,16.40
2018-12-26T19:23:35.443Z,16.40
2018-12-26T19:26:23.837Z,16.40
2018-12-26T19:29:04.640Z,16.40
2018-12-26T19:31:45.322Z,16.40
2018-12-26T19:34:25.971Z,16.40
2018-12-26T19:37:06.483Z,16.40
2018-12-26T19:39:46.998Z,16.30
2018-12-26T19:42:27.674Z,16.30
2018-12-26T19:45:09.203Z,16.30
2018-12-26T19:47:50.251Z,16.30
2018-12-26T19:50:31.527Z,16.30
2018-12-26T19:53:14.860Z,16.30
2018-12-26T19:55:55.515Z,16.30
2018-12-26T19:58:36.345Z,16.20
2018-12-26T20:01:17.664Z,16.20
2018-12-26T20:03:58.257Z,16.20
2018-12-26T20:06:39.560Z,16.20
2018-12-26T20:09:20.263Z,16.20
2018-12-26T20:12:01.651Z,16.20
2018-12-26T20:14:42.514Z,16.10
2018-12-26T20:17:23.806Z,16.10
2018-12-26T20:20:04.725Z,16.10
2018-12-26T20:22:46.099Z,16.10
2018-12-26T20:25:26.787Z,16.10
2018-12-26T20:28:08.411Z,16.10
2018-12-26T20:30:48.967Z,16.10
2018-12-26T20:33:30.030Z,16.10
2018-12-26T20:36:10.755Z,16.00
2018-12-26T20:38:51.395Z,16.00
2018-12-26T20:41:32.319Z,16.00
2018-12-26T20:44:13.775Z,16.00
2018-12-26T20:46:55.302Z,15.90
2018-12-26T20:49:36.212Z,15.90
2018-12-26T20:52:17.735Z,15.90
2018-12-26T20:54:59.314Z,15.90
2018-12-26T20:57:40.507Z,15.90
2018-12-26T21:00:21.922Z,15.90
2018-12-26T21:03:02.686Z,15.90
2018-12-26T21:05:43.972Z,15.80
2018-12-26T21:08:24.787Z,15.90
2018-12-26T21:11:05.794Z,15.90
2018-12-26T21:13:46.658Z,15.90
2018-12-26T21:16:28.002Z,15.90
2018-12-26T21:19:08.658Z,15.90
2018-12-26T21:21:49.930Z,15.90
2018-12-26T21:24:31.058Z,15.90
2018-12-26T21:27:12.228Z,15.90
2018-12-26T21:29:53.086Z,15.90
2018-12-26T21:32:34.483Z,15.90
2018-12-26T21:35:15.631Z,16.00
2018-12-26T21:37:55.039Z,16.00
2018-12-26T21:40:43.443Z,16.00
2018-12-26T21:43:24.194Z,16.00
2018-12-26T21:46:05.099Z,16.10
2018-12-26T21:48:46.311Z,16.00
2018-12-26T21:51:27.105Z,16.00
2018-12-26T21:54:08.800Z,16.00
2018-12-26T21:56:50.073Z,16.00
2018-12-26T21:59:30.887Z,16.00
2018-12-26T22:02:12.383Z,16.20
2018-12-26T22:04:53.699Z,16.50
2018-12-26T22:07:34.442Z,16.80
2018-12-26T22:10:15.357Z,17.10
2018-12-26T22:12:55.958Z,17.50
2018-12-26T22:15:37.480Z,17.90
2018-12-26T22:18:18.703Z,18.30
2018-12-26T22:21:00.069Z,18.70
2018-12-26T22:23:40.775Z,19.10
2018-12-26T22:26:22.103Z,19.40
2018-12-26T22:29:03.538Z,19.40
2018-12-26T22:31:44.754Z,19.30
2018-12-26T22:34:25.373Z,19.20
2018-12-26T22:37:06.323Z,19.20
2018-12-26T22:39:47.314Z,19.20
2018-12-26T22:42:28.278Z,19.20
2018-12-26T22:45:09.775Z,19.10
2018-12-26T22:47:51.231Z,19.10
2018-12-26T22:50:31.734Z,19.10
2018-12-26T22:53:12.382Z,19.10
2018-12-26T22:55:53.038Z,19.00
2018-12-26T22:58:33.562Z,18.90
2018-12-26T23:01:14.456Z,18.80
2018-12-26T23:03:55.626Z,18.80
2018-12-26T23:06:36.641Z,18.70
2018-12-26T23:09:18.159Z,18.60
2018-12-26T23:11:59.055Z,18.50
2018-12-26T23:14:39.644Z,18.40
2018-12-26T23:17:20.217Z,18.30
2018-12-26T23:20:01.872Z,18.10
2018-12-26T23:22:43.363Z,18.10
2018-12-26T23:25:24.255Z,18.00
2018-12-26T23:28:05.157Z,17.90
2018-12-26T23:30:45.740Z,17.80
2018-12-26T23:33:26.939Z,17.80
2018-12-26T23:36:08.126Z,17.70
2018-12-26T23:38:49.295Z,17.70
2018-12-26T23:41:30.029Z,17.70
2018-12-26T23:44:11.414Z,17.70
2018-12-26T23:46:52.370Z,17.70
2018-12-26T23:49:33.815Z,17.70
2018-12-26T23:52:14.973Z,17.60
2018-12-26T23:54:55.663Z,17.60
2018-12-26T23:57:36.202Z,17.60
